KBYI/BYI METAR and TAF weather

Enter ICAO airport designator
Station Type Date Time Source
KBYI METAR 2019/08/19 11:53 UTC NOAA

KBYI 191153Z AUTO 00000KT 10SM CLR 12/09 A2993 RMK AO2 SLP092 T01170094 10172 20111 53011


Station Type Date Time Source
KBYI Decoded METAR 2019/08/19 11:53 UTC NOAA

Station name not available
Aug 19, 2019 - 07:53 AM EDT / 2019.08.19 1153 UTC
Wind: Calm:0
Visibility: 10 mile(s):0
Sky conditions: clear
Temperature: 53.1 F (11.7 C)
Dew Point: 48.9 F (9.4 C)
Relative Humidity: 85%
Pressure (altimeter): 29.93 in. Hg (1013 hPa)
Pressure tendency: 0.03 inches (1.1 hPa) higher than three hours ago
ob: KBYI 191153Z AUTO 00000KT 10SM CLR 12/09 A2993 RMK AO2 SLP092 T01170094 10172 20111 53011
cycle: 12

Station Type Date Time Source
KBYI TAF 2019/08/19 12:22 UTC NOAA

TAF KBYI 191120Z 1912/2012 VRB03KT P6SM SKC
FM191700 27008KT P6SM SKC
FM200200 VRB03KT P6SM SKC

Example: see airport list